Time;durP1;ratioP1;P1;durP2;ratioP2;P2;SDS_P1;SDS_P2;PMS_P1;PMS_P2;Temp;Humidity;BMP_temperature;BMP_pressure;BME280_temperature;BME280_humidity;BME280_pressure;Samples;Min_cycle;Max_cycle;Signal;HPM_P1;HPM_P2
2022/04/03 00:02:08;;;;;;;3.83;2.83;;;-0.40;99.90;;;;;;5052598;28;20081;-83
2022/04/03 00:04:34;;;;;;;8.15;2.88;;;-0.40;99.90;;;;;;5053680;28;20047;-83
2022/04/03 00:07:02;;;;;;;4.43;2.60;;;-0.40;99.90;;;;;;5052337;28;20047;-83
2022/04/03 00:09:28;;;;;;;3.88;2.92;;;-0.50;99.90;;;;;;5053394;28;20108;-83
2022/04/03 00:11:55;;;;;;;3.50;2.70;;;-0.50;99.90;;;;;;5053396;28;20128;-83
2022/04/03 00:14:38;;;;;;;6.57;3.28;;;-0.50;99.90;;;;;;5053546;28;20036;-83
2022/04/03 00:17:04;;;;;;;3.83;2.75;;;-0.50;99.90;;;;;;5053332;28;20082;-83
2022/04/03 00:19:33;;;;;;;6.80;2.95;;;-0.60;99.90;;;;;;5053514;28;20104;-83
2022/04/03 00:22:01;;;;;;;10.55;3.08;;;-0.60;99.90;;;;;;5053459;28;20106;-83
2022/04/03 00:24:27;;;;;;;6.20;2.88;;;-0.70;99.90;;;;;;5053222;28;20017;-83
2022/04/03 00:26:54;;;;;;;4.97;2.60;;;-0.70;99.90;;;;;;5050784;28;20377;-83
2022/04/03 00:29:20;;;;;;;4.72;3.00;;;-0.70;99.90;;;;;;5053352;28;20021;-83
2022/04/03 00:31:53;;;;;;;5.00;3.20;;;-0.90;99.90;;;;;;5053092;28;20092;-83
2022/04/03 00:34:18;;;;;;;5.78;3.50;;;-0.80;99.90;;;;;;5053131;28;20025;-83
2022/04/03 00:36:44;;;;;;;4.40;3.10;;;-0.80;99.90;;;;;;5056936;28;20131;-83
2022/04/03 00:39:11;;;;;;;4.60;3.55;;;-0.90;99.90;;;;;;5073133;28;20059;-83
2022/04/03 00:41:39;;;;;;;7.70;3.20;;;-0.90;99.90;;;;;;5054876;28;20027;-83
2022/04/03 00:44:42;;;;;;;4.47;3.38;;;-0.90;99.90;;;;;;5072497;28;20064;-83
2022/04/03 00:47:08;;;;;;;6.32;3.25;;;-0.90;99.90;;;;;;5072786;28;20388;-83
2022/04/03 00:49:43;;;;;;;6.03;3.22;;;-1.00;99.90;;;;;;5073175;28;20025;-83
2022/04/03 00:52:08;;;;;;;6.22;3.83;;;-0.90;99.90;;;;;;5072844;28;20380;-83
2022/04/03 00:54:34;;;;;;;2.83;2.53;;;-1.00;99.90;;;;;;5055062;28;20036;-83
2022/04/03 00:57:09;;;;;;;9.10;3.50;;;-0.90;99.90;;;;;;5072416;28;20032;-82
2022/04/03 00:59:35;;;;;;;7.15;3.72;;;-0.90;99.90;;;;;;5072802;28;20143;-82
2022/04/03 01:02:00;;;;;;;6.65;3.20;;;-1.00;99.90;;;;;;5054765;28;20499;-82
2022/04/03 01:04:26;;;;;;;9.27;3.75;;;-1.10;99.90;;;;;;5054318;28;20146;-82
2022/04/03 01:06:52;;;;;;;7.57;3.58;;;-1.00;99.90;;;;;;5072833;28;20032;-82
2022/04/03 01:09:17;;;;;;;7.20;3.65;;;-1.20;99.90;;;;;;5054937;28;20101;-82
2022/04/03 01:11:45;;;;;;;6.25;3.17;;;-1.20;99.90;;;;;;5054772;28;20020;-82
2022/04/03 01:14:11;;;;;;;5.53;3.70;;;-1.20;99.90;;;;;;5072605;28;20021;-82
2022/04/03 01:16:45;;;;;;;6.20;2.80;;;-1.20;99.90;;;;;;5054712;28;20032;-83
2022/04/03 01:19:11;;;;;;;6.37;3.77;;;-1.30;99.90;;;;;;5072802;28;20024;-83
2022/04/03 01:21:53;;;;;;;5.78;3.33;;;-1.40;99.90;;;;;;5054687;28;20031;-83
2022/04/03 01:24:20;;;;;;;6.20;3.13;;;-1.30;99.90;;;;;;5072374;28;20472;-83
2022/04/03 01:26:47;;;;;;;9.75;4.22;;;-1.40;99.90;;;;;;5054222;28;20059;-83
2022/04/03 01:29:13;;;;;;;11.02;3.80;;;-1.40;99.90;;;;;;5072633;28;20522;-83
2022/04/03 01:31:40;;;;;;;9.82;4.05;;;-1.50;99.90;;;;;;5072410;28;20020;-83
2022/04/03 01:34:05;;;;;;;15.23;4.80;;;-1.50;99.90;;;;;;5072408;28;20028;-84
2022/04/03 01:36:31;;;;;;;7.65;3.42;;;-1.60;99.90;;;;;;5071024;28;20551;-83
2022/04/03 01:38:56;;;;;;;11.48;3.63;;;-1.60;99.90;;;;;;5076596;28;20111;-83
2022/04/03 01:41:24;;;;;;;5.40;3.35;;;-1.60;99.90;;;;;;5076170;28;20050;-83
2022/04/03 01:43:49;;;;;;;5.07;3.45;;;-1.60;99.90;;;;;;5076684;28;20040;-83
2022/04/03 01:46:21;;;;;;;9.38;3.40;;;-1.70;99.90;;;;;;5076288;28;20020;-83
2022/04/03 01:48:47;;;;;;;6.93;3.58;;;-1.70;99.90;;;;;;5076334;28;20028;-83
2022/04/03 01:51:19;;;;;;;7.93;3.47;;;-1.60;99.90;;;;;;5058319;28;20046;-84
2022/04/03 01:53:45;;;;;;;7.82;3.45;;;-1.70;99.90;;;;;;5057923;28;20047;-83
2022/04/03 01:56:12;;;;;;;8.13;3.28;;;-1.70;99.90;;;;;;5057947;28;20028;-83
2022/04/03 01:58:37;;;;;;;4.88;3.15;;;-1.80;99.90;;;;;;5076166;28;20036;-83
2022/04/03 02:01:06;;;;;;;5.25;3.55;;;-1.90;99.90;;;;;;5076096;28;20025;-83
2022/04/03 02:03:31;;;;;;;4.65;2.90;;;-1.90;99.90;;;;;;5076053;28;20104;-83
2022/04/03 02:06:07;;;;;;;6.20;2.90;;;-1.90;99.90;;;;;;5076051;28;20445;-83
2022/04/03 02:08:33;;;;;;;3.78;3.00;;;-2.00;99.90;;;;;;5076049;28;20495;-84
2022/04/03 02:10:58;;;;;;;4.38;3.47;;;-2.00;99.90;;;;;;5075559;28;20021;-83
2022/04/03 02:13:33;;;;;;;5.43;3.17;;;-2.00;99.90;;;;;;5075842;28;20392;-83
2022/04/03 02:15:59;;;;;;;4.57;2.75;;;-2.10;99.90;;;;;;5075875;28;20067;-83
2022/04/03 02:18:24;;;;;;;4.85;3.28;;;-2.10;99.90;;;;;;5057758;28;20460;-83
2022/04/03 02:20:51;;;;;;;5.40;3.10;;;-2.10;99.90;;;;;;5075683;28;20063;-84
2022/04/03 02:23:16;;;;;;;6.30;3.38;;;-2.10;99.90;;;;;;5075486;28;20020;-84
2022/04/03 02:25:46;;;;;;;5.28;3.63;;;-2.10;99.90;;;;;;5057668;28;20058;-84
2022/04/03 02:28:12;;;;;;;5.85;3.78;;;-2.20;99.90;;;;;;5075311;28;20021;-84
2022/04/03 02:30:37;;;;;;;8.60;3.22;;;-2.20;99.90;;;;;;5057650;28;20130;-84
2022/04/03 02:33:27;;;;;;;3.83;2.72;;;-2.20;99.90;;;;;;5057414;28;20057;-83
2022/04/03 02:35:53;;;;;;;6.78;3.17;;;-2.30;99.90;;;;;;5075241;28;20024;-84
2022/04/03 02:38:19;;;;;;;7.88;3.20;;;-2.30;99.90;;;;;;5072969;28;20056;-84
2022/04/03 02:40:46;;;;;;;6.90;2.88;;;-2.30;99.90;;;;;;5074996;28;20510;-84
2022/04/03 02:43:12;;;;;;;4.80;3.25;;;-2.30;99.90;;;;;;5075114;28;20029;-84
2022/04/03 02:45:50;;;;;;;7.00;3.03;;;-2.40;99.90;;;;;;5075291;28;20033;-84
2022/04/03 02:48:15;;;;;;;6.47;2.90;;;-2.40;99.90;;;;;;5056701;28;20036;-84
2022/04/03 02:50:42;;;;;;;9.15;3.50;;;-2.30;99.90;;;;;;5056586;28;20114;-84
2022/04/03 02:53:09;;;;;;;5.40;3.28;;;-2.40;99.90;;;;;;5075114;28;20158;-84
2022/04/03 02:55:35;;;;;;;8.57;4.43;;;-2.40;99.90;;;;;;5074831;28;20032;-84
2022/04/03 02:58:01;;;;;;;11.02;5.05;;;-2.40;99.90;;;;;;5075205;28;20090;-84
2022/04/03 03:00:26;;;;;;;22.17;9.80;;;-2.50;99.90;;;;;;5074975;28;20086;-84
2022/04/03 03:03:14;;;;;;;21.95;9.73;;;-2.40;99.90;;;;;;5074856;28;20025;-84
2022/04/03 03:05:44;;;;;;;25.85;9.95;;;-2.50;99.90;;;;;;5074983;28;20127;-84
2022/04/03 03:08:15;;;;;;;27.45;10.45;;;-2.50;99.90;;;;;;5074873;28;20036;-84
2022/04/03 03:10:40;;;;;;;27.98;12.63;;;-2.60;99.90;;;;;;5074557;28;20027;-84
2022/04/03 03:13:12;;;;;;;26.95;13.30;;;-2.60;99.90;;;;;;5074761;28;20024;-84
2022/04/03 03:15:38;;;;;;;31.58;12.32;;;-2.60;99.90;;;;;;5074720;28;20028;-84
2022/04/03 03:18:15;;;;;;;23.90;11.05;;;-2.60;99.90;;;;;;5074747;28;20032;-84
2022/04/03 03:20:40;;;;;;;12.77;6.45;;;-2.60;99.90;;;;;;5074767;28;20029;-83
2022/04/03 03:23:09;;;;;;;8.65;4.82;;;-2.60;99.90;;;;;;5056350;28;20124;-84
2022/04/03 03:25:34;;;;;;;10.68;4.40;;;-2.60;99.90;;;;;;5074297;28;20051;-83
2022/04/03 03:28:05;;;;;;;3.67;2.97;;;-2.70;99.90;;;;;;5074634;28;20017;-84
2022/04/03 03:30:31;;;;;;;3.58;2.80;;;-2.70;99.90;;;;;;5071135;28;20385;-84
2022/04/03 03:33:15;;;;;;;6.88;3.75;;;-2.70;99.90;;;;;;5054300;28;20029;-84
2022/04/03 03:35:40;;;;;;;11.82;2.75;;;-2.80;99.90;;;;;;5036614;28;20381;-84
2022/04/03 03:38:07;;;;;;;4.97;3.00;;;-2.80;99.90;;;;;;5051547;28;20045;-84
2022/04/03 03:40:47;;;;;;;6.05;3.03;;;-2.80;99.90;;;;;;5064886;28;20414;-83
2022/04/03 03:43:12;;;;;;;3.95;2.40;;;-2.80;99.90;;;;;;5073922;28;20086;-84
2022/04/03 03:45:42;;;;;;;4.28;2.85;;;-2.80;99.90;;;;;;5074346;28;20016;-84
2022/04/03 03:48:10;;;;;;;3.60;2.42;;;-2.80;99.90;;;;;;5056188;28;20021;-83
2022/04/03 03:50:36;;;;;;;7.18;2.80;;;-2.80;99.90;;;;;;5074010;28;20075;-84
2022/04/03 03:53:12;;;;;;;6.90;3.00;;;-2.80;99.90;;;;;;5073659;28;20411;-83
2022/04/03 03:55:37;;;;;;;;;;;-2.80;99.90;;;;;;5073878;28;20021;-83
2022/04/03 03:58:05;;;;;;;;;;;-2.80;99.90;;;;;;5074355;28;20406;-83
2022/04/03 04:00:31;;;;;;;4.88;2.92;;;-2.80;99.90;;;;;;5073595;28;19911;-84
2022/04/03 04:03:06;;;;;;;6.28;2.97;;;-2.90;99.90;;;;;;5073505;28;20464;-83
2022/04/03 04:05:31;;;;;;;8.40;3.00;;;-2.90;99.90;;;;;;5074104;28;20051;-83
2022/04/03 04:07:58;;;;;;;4.50;2.95;;;-3.00;99.90;;;;;;5073795;28;20051;-83
2022/04/03 04:10:45;;;;;;;6.50;3.38;;;-3.00;99.90;;;;;;5073421;28;20103;-83
2022/04/03 04:13:11;;;;;;;4.35;3.47;;;-2.90;99.90;;;;;;5073721;28;20028;-83
2022/04/03 04:15:36;;;;;;;4.90;2.83;;;-2.90;99.90;;;;;;5073376;28;20035;-84
2022/04/03 04:18:18;;;;;;;6.65;3.42;;;-2.90;99.90;;;;;;5073506;28;20032;-83
2022/04/03 04:20:44;;;;;;;5.88;2.72;;;-2.90;99.90;;;;;;5073448;28;20056;-84
2022/04/03 04:23:23;;;;;;;6.25;2.78;;;-2.80;99.90;;;;;;5072937;28;20079;-82
2022/04/03 04:25:49;;;;;;;6.45;2.90;;;-2.80;99.90;;;;;;5072956;28;20039;-83
2022/04/03 04:28:15;;;;;;;4.25;2.90;;;-2.70;99.90;;;;;;5055388;28;20021;-83
2022/04/03 04:30:52;;;;;;;3.03;2.67;;;-2.70;99.90;;;;;;5072884;28;20029;-83
2022/04/03 04:33:17;;;;;;;5.13;2.67;;;-2.60;99.90;;;;;;5073250;28;20050;-83
2022/04/03 04:35:43;;;;;;;5.15;2.70;;;-2.60;99.90;;;;;;5073216;28;20099;-83
2022/04/03 04:38:08;;;;;;;7.35;2.95;;;-2.60;99.90;;;;;;5071717;28;20052;-84
2022/04/03 04:40:48;;;;;;;3.15;2.90;;;-2.50;99.90;;;;;;5072779;28;20036;-83
2022/04/03 04:43:13;;;;;;;5.25;2.70;;;-2.50;99.90;;;;;;5072942;28;20024;-84
2022/04/03 04:45:55;;;;;;;5.40;3.35;;;-2.50;99.90;;;;;;5073205;28;20104;-83
2022/04/03 04:48:21;;;;;;;5.05;2.85;;;-2.50;99.90;;;;;;5035208;28;20028;-83
2022/04/03 04:50:46;;;;;;;4.65;3.35;;;-2.40;99.90;;;;;;5049809;28;20025;-84
2022/04/03 04:53:13;;;;;;;4.97;3.22;;;-2.40;99.90;;;;;;5054541;28;20453;-83
2022/04/03 04:55:38;;;;;;;6.78;3.95;;;-2.30;99.90;;;;;;5072541;28;20392;-84
2022/04/03 04:58:05;;;;;;;5.55;4.10;;;-2.30;99.90;;;;;;5072988;28;20040;-83
2022/04/03 05:00:32;;;;;;;6.45;3.55;;;-2.30;99.90;;;;;;5054712;28;20115;-84
2022/04/03 05:03:01;;;;;;;10.23;5.03;;;-2.20;99.90;;;;;;5071582;28;20035;-84
2022/04/03 05:05:28;;;;;;;14.23;6.00;;;-2.20;99.90;;;;;;5052892;28;20031;-83
2022/04/03 05:07:56;;;;;;;9.70;5.30;;;-2.20;99.90;;;;;;5035037;28;20095;-83
2022/04/03 05:10:50;;;;;;;8.48;4.80;;;-2.20;99.90;;;;;;5064231;28;20032;-84
2022/04/03 05:13:16;;;;;;;7.45;4.25;;;-2.10;99.90;;;;;;5071870;28;20025;-83
2022/04/03 05:16:00;;;;;;;6.30;3.60;;;-2.00;99.90;;;;;;5072605;28;20472;-84
2022/04/03 05:18:26;;;;;;;7.45;3.70;;;-1.90;99.90;;;;;;5072645;28;20074;-84
2022/04/03 05:20:53;;;;;;;4.78;3.55;;;-1.90;99.90;;;;;;5054301;28;20430;-83
2022/04/03 05:23:18;;;;;;;5.10;3.00;;;-1.80;99.90;;;;;;5072344;28;20032;-83
2022/04/03 05:25:45;;;;;;;8.63;3.83;;;-1.80;99.90;;;;;;5054399;28;20450;-83
2022/04/03 05:28:11;;;;;;;9.52;5.65;;;-1.70;99.90;;;;;;5071611;28;20020;-83
2022/04/03 05:30:38;;;;;;;14.60;6.80;;;-1.70;99.90;;;;;;5072078;28;20476;-82
2022/04/03 05:33:04;;;;;;;14.30;6.40;;;-1.60;99.90;;;;;;5054122;28;20082;-83
2022/04/03 05:35:31;;;;;;;8.48;5.18;;;-1.60;99.90;;;;;;5054622;28;20472;-83
2022/04/03 05:37:57;;;;;;;17.75;8.07;;;-1.60;99.90;;;;;;5071908;28;20554;-82
2022/04/03 05:40:22;;;;;;;12.55;7.80;;;-1.60;99.90;;;;;;5072293;28;20040;-82
2022/04/03 05:42:48;;;;;;;10.45;7.88;;;-1.60;99.90;;;;;;5071749;28;20078;-82
2022/04/03 05:45:14;;;;;;;13.40;8.77;;;-1.60;99.90;;;;;;5054191;28;20462;-82
2022/04/03 05:47:40;;;;;;;9.30;5.47;;;-1.50;99.90;;;;;;5072454;28;20468;-82
2022/04/03 05:50:06;;;;;;;4.97;3.75;;;-1.40;99.90;;;;;;5072069;28;20017;-81
2022/04/03 05:52:42;;;;;;;10.65;4.30;;;-1.30;99.90;;;;;;5072132;28;20031;-81
2022/04/03 05:55:08;;;;;;;6.85;4.10;;;-1.20;99.90;;;;;;5053990;28;20556;-81
2022/04/03 05:57:36;;;;;;;11.60;3.80;;;-1.10;99.90;;;;;;5050048;28;20147;-81
2022/04/03 06:00:03;;;;;;;7.43;3.65;;;-0.90;99.90;;;;;;5054206;28;20020;-81
2022/04/03 06:03:03;;;;;;;6.70;3.63;;;-0.80;99.90;;;;;;5071661;28;20539;-81
2022/04/03 06:05:31;;;;;;;20.02;7.30;;;-0.70;99.90;;;;;;5052081;28;20067;-81
2022/04/03 06:07:58;;;;;;;7.53;3.40;;;-0.60;99.90;;;;;;5065186;28;20048;-81
2022/04/03 06:10:25;;;;;;;6.55;3.42;;;-0.60;99.90;;;;;;5071586;28;20431;-81
2022/04/03 06:12:56;;;;;;;11.23;3.45;;;-0.50;99.90;;;;;;5071889;28;20016;-81
2022/04/03 06:15:22;;;;;;;7.93;3.83;;;-0.40;99.90;;;;;;5071915;28;20537;-82
2022/04/03 06:17:53;;;;;;;6.22;4.18;;;-0.40;99.90;;;;;;5071778;28;20060;-82
2022/04/03 06:20:19;;;;;;;11.77;5.65;;;-0.30;99.90;;;;;;5071980;28;20056;-82
2022/04/03 06:22:54;;;;;;;15.38;7.78;;;-0.30;99.90;;;;;;5072144;28;20028;-83
2022/04/03 06:25:20;;;;;;;11.80;6.70;;;-0.20;99.90;;;;;;5075381;28;20027;-83
2022/04/03 06:27:54;;;;;;;9.98;5.03;;;-0.20;99.90;;;;;;5075547;28;20079;-83
2022/04/03 06:30:22;;;;;;;14.35;4.13;;;-0.10;99.90;;;;;;5075693;28;20024;-83
2022/04/03 06:32:47;;;;;;;9.68;3.58;;;0.00;99.90;;;;;;5075408;28;20480;-84
2022/04/03 06:35:17;;;;;;;6.75;3.28;;;0.10;99.90;;;;;;5057510;28;20028;-83
2022/04/03 06:37:56;;;;;;;8.88;3.45;;;0.20;99.90;;;;;;5053877;28;20147;-84
2022/04/03 06:40:23;;;;;;;9.77;4.13;;;0.20;99.90;;;;;;5041334;28;20029;-84
2022/04/03 06:42:48;;;;;;;7.38;4.10;;;0.20;99.90;;;;;;5040399;28;20540;-84
2022/04/03 06:45:15;;;;;;;9.05;4.25;;;0.20;99.90;;;;;;5055056;28;20103;-84
2022/04/03 06:47:41;;;;;;;8.07;4.07;;;0.20;99.90;;;;;;5054977;28;20025;-84
2022/04/03 06:50:28;;;;;;;5.85;4.22;;;0.30;99.90;;;;;;5055256;28;20096;-83
2022/04/03 06:52:54;;;;;;;11.25;4.57;;;0.30;99.90;;;;;;5054744;28;20036;-83
2022/04/03 06:55:21;;;;;;;8.05;4.03;;;0.40;99.90;;;;;;5054662;28;20021;-83
2022/04/03 06:57:47;;;;;;;7.85;3.72;;;0.50;99.90;;;;;;5054769;28;20067;-83
2022/04/03 07:00:20;;;;;;;14.00;4.10;;;0.50;99.90;;;;;;5054893;28;20029;-84
2022/04/03 07:02:45;;;;;;;10.30;3.92;;;0.50;99.90;;;;;;5054745;28;20029;-83
2022/04/03 07:05:20;;;;;;;17.15;5.78;;;0.60;99.90;;;;;;5054527;28;20037;-84
2022/04/03 07:07:46;;;;;;;9.57;4.95;;;0.70;99.90;;;;;;5053589;28;20017;-83
2022/04/03 07:10:13;;;;;;;8.55;4.43;;;0.70;99.90;;;;;;5054497;28;20032;-83
2022/04/03 07:12:39;;;;;;;9.10;4.00;;;0.80;99.90;;;;;;5054675;28;20021;-83
2022/04/03 07:15:23;;;;;;;10.65;4.38;;;0.90;99.90;;;;;;5054722;28;20556;-83
2022/04/03 07:17:49;;;;;;;6.55;3.50;;;0.90;99.90;;;;;;5054678;28;20373;-84
2022/04/03 07:20:17;;;;;;;10.02;4.15;;;1.00;99.90;;;;;;5054342;28;20024;-84
2022/04/03 07:22:44;;;;;;;6.25;4.18;;;1.10;99.90;;;;;;5053209;28;20021;-84
2022/04/03 07:25:13;;;;;;;8.20;3.92;;;1.10;99.90;;;;;;5054126;28;20048;-83
2022/04/03 07:27:40;;;;;;;7.95;3.25;;;1.10;99.90;;;;;;5054215;28;20020;-83
2022/04/03 07:30:13;;;;;;;10.85;4.13;;;1.20;99.90;;;;;;5053057;28;20031;-84
2022/04/03 07:32:39;;;;;;;6.85;3.33;;;1.30;99.90;;;;;;5052768;28;20032;-84
2022/04/03 07:35:12;;;;;;;6.07;3.90;;;1.40;99.90;;;;;;5053571;28;20025;-84
2022/04/03 07:37:41;;;;;;;6.32;3.45;;;1.60;99.90;;;;;;5059105;28;20043;-83
2022/04/03 07:40:08;;;;;;;5.72;3.30;;;1.60;99.90;;;;;;5053937;28;20036;-83
2022/04/03 07:42:35;;;;;;;7.00;3.63;;;1.70;99.90;;;;;;5048311;28;20082;-84
2022/04/03 07:45:01;;;;;;;3.22;2.47;;;1.70;99.90;;;;;;5054149;28;20021;-83
2022/04/03 07:47:28;;;;;;;10.35;3.78;;;1.80;99.90;;;;;;5068290;28;20533;-84
2022/04/03 07:49:53;;;;;;;10.48;3.22;;;1.80;99.90;;;;;;5051732;28;20102;-83
2022/04/03 07:52:19;;;;;;;4.30;2.60;;;1.80;99.90;;;;;;5053970;28;20419;-83
2022/04/03 07:54:44;;;;;;;4.55;2.50;;;1.90;99.90;;;;;;5056593;28;21853;-83
2022/04/03 07:57:10;;;;;;;6.65;2.50;;;1.90;96.70;;;;;;5056009;28;20082;-83
2022/04/03 07:59:36;;;;;;;3.50;2.35;;;1.90;98.10;;;;;;5073788;28;20024;-83
2022/04/03 08:02:02;;;;;;;9.05;2.58;;;2.00;99.00;;;;;;5073484;28;20035;-83
2022/04/03 08:04:30;;;;;;;3.40;2.58;;;2.00;96.40;;;;;;5073185;28;20499;-83
2022/04/03 08:06:55;;;;;;;10.60;2.80;;;2.00;99.90;;;;;;5035334;28;20033;-82
2022/04/03 08:09:23;;;;;;;2.90;2.58;;;2.10;95.90;;;;;;5044302;28;20039;-83
2022/04/03 08:11:49;;;;;;;3.05;2.70;;;2.00;95.70;;;;;;5073482;28;20032;-86
2022/04/03 08:14:56;;;;;;;11.02;2.58;;;2.10;94.00;;;;;;5073193;28;20475;-85
2022/04/03 08:17:21;;;;;;;2.25;2.00;;;2.20;92.60;;;;;;5073503;28;20078;-84
2022/04/03 08:19:47;;;;;;;3.03;2.42;;;2.30;87.70;;;;;;5073093;28;20040;-86
2022/04/03 08:22:12;;;;;;;4.97;2.75;;;2.30;86.50;;;;;;5055399;28;20028;-86
2022/04/03 08:24:43;;;;;;;5.05;2.45;;;2.20;92.90;;;;;;5072911;28;20025;-84
2022/04/03 08:27:10;;;;;;;6.47;2.38;;;2.30;92.30;;;;;;5073298;28;20021;-84
2022/04/03 08:29:36;;;;;;;4.10;2.58;;;2.40;92.80;;;;;;5073076;28;20384;-84
2022/04/03 08:32:02;;;;;;;6.60;2.47;;;2.40;90.90;;;;;;5069927;28;20025;-86
2022/04/03 08:34:30;;;;;;;6.40;2.85;;;2.40;91.30;;;;;;5055297;28;20028;-86
2022/04/03 08:36:57;;;;;;;8.10;3.15;;;2.40;93.90;;;;;;5073053;28;20365;-85
2022/04/03 08:39:23;;;;;;;16.00;3.58;;;2.50;95.30;;;;;;5054707;28;20047;-86
2022/04/03 08:42:14;;;;;;;8.10;2.58;;;2.60;93.10;;;;;;5072890;28;20021;-86
2022/04/03 08:44:40;;;;;;;3.05;2.70;;;2.70;90.40;;;;;;5072649;28;20039;-87
2022/04/03 08:47:17;;;;;;;5.15;2.85;;;2.70;92.80;;;;;;5072362;28;20021;-85
2022/04/03 08:49:44;;;;;;;7.65;2.85;;;2.70;94.90;;;;;;5055130;28;20495;-85
2022/04/03 08:52:13;;;;;;;3.78;2.40;;;2.80;95.10;;;;;;5054855;28;20024;-86
2022/04/03 08:54:39;;;;;;;8.10;3.00;;;2.80;93.10;;;;;;5072652;28;20020;-85
2022/04/03 08:57:11;;;;;;;6.30;2.75;;;2.80;98.60;;;;;;5054763;28;20060;-84
2022/04/03 08:59:37;;;;;;;4.72;2.47;;;3.00;93.20;;;;;;5054412;28;20507;-84
2022/04/03 09:02:14;;;;;;;3.03;2.25;;;3.20;85.70;;;;;;5072907;28;20066;-85
2022/04/03 09:04:39;;;;;;;6.22;2.50;;;3.20;88.00;;;;;;5072636;28;20035;-85
2022/04/03 09:07:17;;;;;;;6.53;2.83;;;3.20;82.10;;;;;;5072945;28;20472;-85
2022/04/03 09:09:43;;;;;;;3.40;2.33;;;3.20;85.80;;;;;;5052562;28;20052;-84
2022/04/03 09:12:16;;;;;;;3.25;2.42;;;3.20;85.00;;;;;;5052693;28;20075;-86
2022/04/03 09:14:51;;;;;;;3.95;2.45;;;3.40;81.80;;;;;;5052697;28;20485;-85
2022/04/03 09:17:34;;;;;;;10.60;2.63;;;3.40;77.20;;;;;;5052693;28;20098;-84
2022/04/03 09:20:05;;;;;;;4.55;2.38;;;3.40;77.00;;;;;;5063520;28;20029;-86
2022/04/03 09:22:32;;;;;;;4.13;2.05;;;3.50;81.70;;;;;;5054817;28;20036;-86
2022/04/03 09:24:59;;;;;;;4.05;2.30;;;3.50;88.70;;;;;;5054363;28;20052;-85
2022/04/03 09:27:25;;;;;;;3.95;2.45;;;3.60;82.70;;;;;;5054986;28;20503;-85
2022/04/03 09:30:16;;;;;;;3.60;2.58;;;3.60;76.70;;;;;;5054031;28;20082;-85
2022/04/03 09:32:49;;;;;;;7.45;2.50;;;3.70;73.80;;;;;;5068751;28;20029;-84
2022/04/03 09:35:20;;;;;;;4.93;2.50;;;3.70;77.70;;;;;;5072517;28;20025;-85
2022/04/03 09:38:22;;;;;;;2.50;1.88;;;3.70;77.30;;;;;;5072333;28;20400;-84
2022/04/03 09:40:51;;;;;;;5.28;2.70;;;3.80;72.60;;;;;;5072462;28;20028;-85
2022/04/03 09:43:31;;;;;;;8.13;2.40;;;3.90;75.50;;;;;;5072302;28;20024;-83
2022/04/03 09:45:59;;;;;;;2.53;2.33;;;4.10;77.00;;;;;;5072382;28;20488;-84
2022/04/03 09:48:28;;;;;;;2.95;2.38;;;4.20;77.20;;;;;;5072313;28;20486;-84
2022/04/03 09:51:19;;;;;;;3.00;2.13;;;4.30;76.60;;;;;;5072135;28;20133;-84
2022/04/03 09:54:12;;;;;;;7.38;2.78;;;4.30;69.40;;;;;;5071951;28;20032;-83
2022/04/03 09:56:37;;;;;;;10.00;2.75;;;4.20;70.30;;;;;;5072256;28;20360;-84
2022/04/03 09:59:15;;;;;;;3.63;2.40;;;4.30;73.90;;;;;;5074578;28;20108;-84
2022/04/03 10:01:42;;;;;;;4.63;3.05;;;4.20;75.80;;;;;;5076202;28;20048;-84
2022/04/03 10:04:14;;;;;;;9.93;2.47;;;4.30;81.70;;;;;;5075954;28;20375;-83
2022/04/03 10:06:41;;;;;;;3.63;2.45;;;4.50;83.60;;;;;;5075625;28;20020;-83
2022/04/03 10:09:12;;;;;;;3.42;2.50;;;4.60;79.80;;;;;;5075528;28;20455;-83
2022/04/03 10:11:39;;;;;;;3.00;2.45;;;4.60;74.50;;;;;;5076231;28;20442;-85
2022/04/03 10:14:06;;;;;;;3.92;2.22;;;4.70;73.20;;;;;;5075718;28;20496;-85
2022/04/03 10:16:31;;;;;;;4.95;2.83;;;4.70;81.40;;;;;;5076018;28;20027;-84
2022/04/03 10:19:00;;;;;;;4.47;2.63;;;4.80;80.40;;;;;;5057837;28;20421;-83
2022/04/03 10:21:41;;;;;;;6.90;2.90;;;4.60;75.10;;;;;;5057840;28;20036;-84
2022/04/03 10:24:15;;;;;;;5.35;2.72;;;4.50;85.50;;;;;;5075262;28;20028;-84
2022/04/03 10:26:43;;;;;;;3.35;2.90;;;4.60;84.80;;;;;;5075345;28;20028;-84
2022/04/03 10:29:10;;;;;;;7.63;3.03;;;4.70;84.30;;;;;;5057718;28;20057;-83
2022/04/03 10:31:56;;;;;;;5.63;3.15;;;4.90;87.70;;;;;;5075561;28;20024;-83
2022/04/03 10:34:22;;;;;;;12.82;3.00;;;4.90;91.10;;;;;;5075148;28;20067;-84
2022/04/03 10:36:54;;;;;;;4.53;2.25;;;5.10;87.60;;;;;;5075217;28;20502;-84
2022/04/03 10:39:25;;;;;;;3.92;2.33;;;5.20;90.80;;;;;;5074840;28;20467;-84
2022/04/03 10:42:24;;;;;;;3.08;1.98;;;5.30;87.20;;;;;;5075215;28;20096;-83
2022/04/03 10:45:11;;;;;;;6.85;2.22;;;5.30;80.60;;;;;;5075294;28;20020;-84
2022/04/03 10:47:39;;;;;;;2.88;2.58;;;5.40;82.50;;;;;;5075148;28;20020;-84
2022/04/03 10:50:06;;;;;;;6.85;1.88;;;5.50;91.30;;;;;;5057547;28;20020;-83
2022/04/03 10:52:37;;;;;;;8.18;2.00;;;5.50;77.90;;;;;;5075145;28;20024;-84
2022/04/03 10:55:34;;;;;;;1.80;1.70;;;5.40;75.50;;;;;;5074897;28;20021;-84
2022/04/03 10:58:06;;;;;;;2.25;1.67;;;5.30;79.10;;;;;;5075129;28;20484;-84
2022/04/03 11:00:36;;;;;;;3.10;1.95;;;5.20;75.00;;;;;;5074876;28;20083;-85
2022/04/03 11:03:34;;;;;;;8.95;2.08;;;5.20;84.40;;;;;;5074746;28;20073;-85
2022/04/03 11:06:30;;;;;;;9.60;2.70;;;5.30;90.70;;;;;;5056751;28;20096;-83
2022/04/03 11:08:57;;;;;;;11.73;2.25;;;5.60;94.80;;;;;;5074334;28;20025;-83
2022/04/03 11:14:57;;;;;;;6.70;2.15;;;5.70;73.20;;;;;;5074733;28;20474;-84
2022/04/03 11:17:54;;;;;;;8.07;3.97;;;5.60;83.80;;;;;;5074865;28;20017;-83
2022/04/03 11:20:40;;;;;;;8.43;2.40;;;5.80;78.40;;;;;;5074451;28;20472;-84
2022/04/03 11:23:08;;;;;;;4.00;2.00;;;5.90;75.20;;;;;;5074133;28;20478;-83
2022/04/03 11:25:34;;;;;;;5.60;2.40;;;5.80;78.30;;;;;;5054629;28;20035;-84
2022/04/03 11:27:59;;;;;;;8.20;2.53;;;5.90;77.60;;;;;;5053981;28;20025;-84
2022/04/03 11:30:49;;;;;;;7.85;2.38;;;5.80;75.90;;;;;;5054327;28;20460;-84
2022/04/03 11:33:15;;;;;;;3.30;2.50;;;5.70;80.20;;;;;;5050464;28;20400;-83
2022/04/03 11:35:45;;;;;;;3.67;2.28;;;5.60;77.10;;;;;;5056222;28;20024;-83
2022/04/03 11:38:39;;;;;;;4.13;2.05;;;5.60;73.90;;;;;;5073863;28;20068;-84
2022/04/03 11:41:06;;;;;;;3.97;2.60;;;5.60;83.20;;;;;;5073912;28;20483;-83
2022/04/03 11:43:33;;;;;;;6.28;2.95;;;5.70;77.50;;;;;;5073684;28;20020;-84
2022/04/03 11:46:01;;;;;;;6.45;2.30;;;5.70;75.00;;;;;;5070998;28;20016;-83
2022/04/03 11:48:36;;;;;;;4.43;2.45;;;5.70;81.50;;;;;;5074181;28;20384;-84
2022/04/03 11:51:09;;;;;;;;;;;5.70;83.70;;;;;;5074589;28;20017;-84
2022/04/03 11:53:35;;;;;;;4.53;2.50;;;5.50;82.70;;;;;;5073760;28;19917;-83
2022/04/03 11:56:18;;;;;;;5.43;2.40;;;5.50;86.00;;;;;;5073746;28;20058;-83
2022/04/03 11:58:49;;;;;;;5.93;2.88;;;5.40;92.30;;;;;;5055709;28;20025;-83
2022/04/03 12:01:28;;;;;;;5.18;2.80;;;5.40;91.30;;;;;;5051908;28;20024;-83
2022/04/03 12:04:13;;;;;;;10.52;3.03;;;5.40;92.90;;;;;;5073656;28;20029;-83
2022/04/03 12:06:51;;;;;;;2.67;2.27;;;5.40;94.70;;;;;;5073541;28;20040;-83
2022/04/03 12:09:21;;;;;;;13.95;2.95;;;5.50;92.80;;;;;;5073059;28;20027;-83
2022/04/03 12:11:51;;;;;;;4.45;3.13;;;5.70;94.50;;;;;;5073349;28;20096;-83
2022/04/03 12:14:37;;;;;;;3.58;2.65;;;5.70;92.00;;;;;;5053351;28;20383;-83
2022/04/03 12:17:07;;;;;;;;;;;5.70;94.10;;;;;;5036207;28;20083;-83
2022/04/03 12:19:50;;;;;;;8.75;2.40;;;5.80;93.60;;;;;;5058190;28;19908;-83
2022/04/03 12:22:23;;;;;;;6.00;2.50;;;5.80;96.50;;;;;;5038201;28;20024;-83
2022/04/03 12:24:50;;;;;;;4.60;2.72;;;5.70;95.20;;;;;;5073046;28;20365;-83
2022/04/03 12:27:21;;;;;;;3.58;2.00;;;5.70;94.50;;;;;;5055091;28;20021;-84
2022/04/03 12:29:54;;;;;;;7.60;2.72;;;5.70;94.60;;;;;;5055610;28;20025;-83
2022/04/03 12:32:25;;;;;;;10.80;2.63;;;5.60;95.80;;;;;;5073275;28;20020;-83
2022/04/03 12:34:55;;;;;;;4.88;2.88;;;5.60;96.10;;;;;;5054624;28;20085;-83
2022/04/03 12:37:35;;;;;;;7.72;2.58;;;5.60;95.20;;;;;;5055023;28;20468;-83
2022/04/03 12:40:05;;;;;;;4.38;2.30;;;5.60;94.30;;;;;;5072943;28;20452;-82
2022/04/03 12:42:45;;;;;;;3.22;2.65;;;5.60;95.90;;;;;;5072867;28;20037;-82
2022/04/03 12:45:19;;;;;;;5.32;2.60;;;5.70;94.00;;;;;;5055351;28;20036;-82
2022/04/03 12:48:04;;;;;;;5.50;3.00;;;5.60;96.60;;;;;;5073138;28;20381;-82
2022/04/03 12:50:38;;;;;;;4.68;2.50;;;5.60;97.30;;;;;;5055091;28;20020;-82
2022/04/03 12:53:12;;;;;;;6.72;2.60;;;5.60;99.90;;;;;;5072611;28;20031;-82
2022/04/03 12:55:47;;;;;;;3.50;2.80;;;5.60;99.90;;;;;;5053019;28;20025;-83
2022/04/03 12:58:26;;;;;;;4.40;2.75;;;5.60;99.90;;;;;;5053049;28;20115;-83
2022/04/03 13:01:06;;;;;;;4.90;2.20;;;5.60;99.90;;;;;;5055358;28;20026;-82
2022/04/03 13:03:41;;;;;;;4.43;2.28;;;5.70;98.80;;;;;;5073067;28;20032;-82
2022/04/03 13:06:11;;;;;;;3.13;2.10;;;5.80;96.80;;;;;;5054647;28;20025;-82
2022/04/03 13:08:47;;;;;;;2.75;2.28;;;6.10;97.60;;;;;;5054496;28;20021;-83
2022/04/03 13:11:34;;;;;;;4.68;2.53;;;6.20;96.70;;;;;;5072839;28;20024;-83
2022/04/03 13:14:26;;;;;;;4.22;2.70;;;6.20;98.30;;;;;;5072166;28;20028;-84